Time;durP1;ratioP1;P1;durP2;ratioP2;P2;SDS_P1;SDS_P2;PMS_P1;PMS_P2;Temp;Humidity;BMP_temperature;BMP_pressure;BME280_temperature;BME280_humidity;BME280_pressure;Samples;Min_cycle;Max_cycle;Signal;HPM_P1;HPM_P2
2021/04/03 00:01:30;;;;;;;0.98;0.30;;;;;;;2.73;50.91;102157.84;4880418;29;20040;-81
2021/04/03 00:03:55;;;;;;;0.30;0.22;;;;;;;2.12;51.72;102061.47;4866550;29;20047;-82
2021/04/03 00:06:21;;;;;;;1.05;0.30;;;;;;;2.63;51.48;102171.94;4852028;29;20038;-81
2021/04/03 00:08:47;;;;;;;2.45;0.40;;;;;;;2.59;51.82;102164.19;4884258;29;20359;-81
2021/04/03 00:11:13;;;;;;;1.77;0.30;;;;;;;2.53;51.25;102147.84;4867479;29;20032;-82
2021/04/03 00:13:41;;;;;;;0.80;0.28;;;;;;;2.38;51.86;102136.53;4873627;29;20132;-81
2021/04/03 00:16:09;;;;;;;1.90;0.28;;;;;;;2.48;52.04;102148.16;4880801;29;20104;-81
2021/04/03 00:18:35;;;;;;;1.20;0.22;;;;;;;2.44;50.99;102159.16;4879255;29;20032;-81
2021/04/03 00:21:01;;;;;;;0.50;0.10;;;;;;;2.46;52.27;102171.38;4864724;29;20097;-81
2021/04/03 00:23:27;;;;;;;0.95;0.25;;;;;;;2.47;52.00;102174.88;4863861;29;20032;-81
2021/04/03 00:25:52;;;;;;;0.38;0.10;;;;;;;2.40;51.53;102178.94;4864679;29;20033;-81
2021/04/03 00:28:18;;;;;;;1.17;0.22;;;;;;;2.44;51.24;102186.56;4863772;29;20072;-82
2021/04/03 00:30:45;;;;;;;3.83;0.20;;;;;;;2.37;51.47;102163.22;4880361;29;20453;-81
2021/04/03 00:33:12;;;;;;;0.80;0.28;;;;;;;2.22;51.84;102144.78;4861282;29;20408;-80
2021/04/03 00:35:44;;;;;;;1.85;0.32;;;;;;;2.28;52.17;102165.56;4872514;29;20115;-81
2021/04/03 00:38:10;;;;;;;1.05;0.20;;;;;;;2.31;51.34;102159.19;4874920;29;20353;-81
2021/04/03 00:40:46;;;;;;;0.52;0.20;;;;;;;2.30;51.73;102160.16;4881166;29;20041;-81
2021/04/03 00:43:17;;;;;;;2.30;0.30;;;;;;;2.23;52.62;102173.03;4862715;29;20033;-81
2021/04/03 00:45:44;;;;;;;0.68;0.20;;;;;;;2.24;52.40;102174.72;4880146;29;20073;-82
2021/04/03 00:48:10;;;;;;;0.77;0.20;;;;;;;2.15;53.11;102170.06;4863811;29;20133;-81
2021/04/03 00:50:38;;;;;;;1.20;0.20;;;;;;;2.21;52.24;102161.66;4863959;29;20032;-81
2021/04/03 00:53:05;;;;;;;0.73;0.30;;;;;;;1.97;52.64;102137.75;4883139;29;20032;-81
2021/04/03 00:55:31;;;;;;;0.20;0.10;;;;;;;2.15;52.09;102169.22;4899866;29;20374;-81
2021/04/03 00:57:58;;;;;;;1.02;0.30;;;;;;;2.14;52.44;102181.66;4877751;29;20477;-81
2021/04/03 01:00:23;;;;;;;0.57;0.20;;;;;;;2.02;53.07;102159.50;4880245;29;20412;-81
2021/04/03 01:02:49;;;;;;;1.65;0.30;;;;;;;1.77;52.85;102123.25;4879854;29;20033;-80
2021/04/03 01:05:18;;;;;;;1.20;0.38;;;;;;;1.97;53.46;102188.19;4861241;29;20523;-81
2021/04/03 01:07:44;;;;;;;1.55;0.30;;;;;;;2.02;53.19;102190.50;4864882;29;20456;-81
2021/04/03 01:10:14;;;;;;;0.60;0.30;;;;;;;2.02;53.03;102191.38;4882808;29;20029;-81
2021/04/03 01:13:09;;;;;;;0.93;0.30;;;;;;;2.02;52.73;102196.69;4880010;29;20029;-81
2021/04/03 01:16:01;;;;;;;0.75;0.20;;;;;;;1.97;52.87;102177.56;4848421;29;20065;-80
2021/04/03 01:18:35;;;;;;;1.60;0.30;;;;;;;2.03;52.96;102179.78;4865527;29;20052;-81
2021/04/03 01:21:31;;;;;;;0.40;0.20;;;;;;;1.96;53.72;102185.66;4899237;29;20475;-81
2021/04/03 01:24:28;;;;;;;0.80;0.20;;;;;;;1.93;54.02;102184.06;4832980;29;20084;-81
2021/04/03 01:27:11;;;;;;;1.13;0.38;;;;;;;1.89;54.36;102182.59;4861578;29;20033;-81
2021/04/03 01:30:04;;;;;;;1.85;0.30;;;;;;;1.84;53.30;102172.28;4859331;29;20037;-81
2021/04/03 01:32:40;;;;;;;0.52;0.20;;;;;;;1.88;53.11;102184.38;4863723;29;20025;-81
2021/04/03 01:35:09;;;;;;;0.55;0.25;;;;;;;1.94;53.21;102184.91;4864523;29;20037;-81
2021/04/03 01:37:43;;;;;;;0.90;0.30;;;;;;;1.93;53.60;102183.22;4862734;29;20132;-81
2021/04/03 01:40:11;;;;;;;2.40;0.30;;;;;;;1.72;53.41;102148.41;4878297;29;20032;-81
2021/04/03 01:42:38;;;;;;;1.58;0.40;;;;;;;1.77;53.26;102163.06;4897389;29;20088;-81
2021/04/03 01:45:06;;;;;;;1.98;0.30;;;;;;;1.80;53.67;102188.53;4900022;29;20448;-81
2021/04/03 01:47:34;;;;;;;1.65;0.30;;;;;;;1.76;53.95;102177.28;4883094;29;20460;-81
2021/04/03 01:50:01;;;;;;;2.03;0.40;;;;;;;1.64;54.11;102165.72;4867163;29;20360;-81
2021/04/03 01:52:29;;;;;;;1.33;0.35;;;;;;;1.61;54.18;102170.41;4881062;29;20022;-81
2021/04/03 01:54:57;;;;;;;0.60;0.20;;;;;;;1.67;54.14;102180.59;4866685;29;20119;-81
2021/04/03 01:57:29;;;;;;;1.00;0.28;;;;;;;1.48;54.27;102154.47;4881165;29;20044;-81
2021/04/03 01:59:55;;;;;;;0.77;0.30;;;;;;;1.60;54.31;102179.31;4867259;29;20033;-81
2021/04/03 02:02:22;;;;;;;1.50;0.30;;;;;;;1.60;54.52;102181.97;4881404;29;20041;-81
2021/04/03 02:04:49;;;;;;;0.68;0.25;;;;;;;1.43;54.50;102167.22;4882808;29;20037;-81
2021/04/03 02:07:19;;;;;;;1.35;0.30;;;;;;;1.44;54.89;102178.69;4875841;29;20040;-81
2021/04/03 02:09:52;;;;;;;2.30;0.25;;;;;;;1.37;55.17;102179.09;4868983;29;20040;-82
2021/04/03 02:12:19;;;;;;;1.25;0.20;;;;;;;1.33;55.30;102177.63;4885217;29;20391;-81
2021/04/03 02:14:50;;;;;;;1.48;0.30;;;;;;;1.38;55.35;102193.22;4869333;29;20040;-81
2021/04/03 02:17:18;;;;;;;1.90;0.35;;;;;;;1.40;55.00;102199.25;4884915;29;20166;-82
2021/04/03 02:19:44;;;;;;;1.02;0.20;;;;;;;1.37;54.95;102189.72;4888849;29;20559;-81
2021/04/03 02:22:11;;;;;;;0.90;0.28;;;;;;;1.31;54.51;102165.41;4873467;29;20041;-81
2021/04/03 02:24:38;;;;;;;2.13;0.20;;;;;;;1.51;54.77;102191.41;4902578;29;20049;-81
2021/04/03 02:27:05;;;;;;;0.98;0.20;;;;;;;1.39;55.00;102186.94;4904949;29;20040;-81
2021/04/03 02:29:31;;;;;;;1.33;0.35;;;;;;;1.50;55.02;102210.94;4868759;29;20352;-81
2021/04/03 02:31:56;;;;;;;0.55;0.20;;;;;;;1.47;55.56;102211.16;4882380;29;20035;-81
2021/04/03 02:34:22;;;;;;;1.63;0.30;;;;;;;1.41;56.08;102203.59;4864694;29;20127;-81
2021/04/03 02:36:47;;;;;;;1.45;0.50;;;;;;;1.39;55.55;102194.91;4890367;29;20036;-81
2021/04/03 02:39:13;;;;;;;2.55;0.32;;;;;;;1.36;56.13;102201.28;4877456;29;20632;-81
2021/04/03 02:42:03;;;;;;;1.13;0.20;;;;;;;1.36;56.59;102209.25;4871220;29;20033;-81
2021/04/03 02:44:54;;;;;;;0.57;0.10;;;;;;;1.36;56.44;102209.25;4887156;29;20456;-80
2021/04/03 02:47:25;;;;;;;1.23;0.30;;;;;;;1.32;56.52;102210.38;4882772;29;20036;-81
2021/04/03 02:50:00;;;;;;;2.38;0.20;;;;;;;1.30;56.43;102211.47;4864714;29;20028;-81
2021/04/03 02:52:27;;;;;;;0.32;0.20;;;;;;;1.35;56.28;102220.78;4898387;29;20024;-81
2021/04/03 02:54:54;;;;;;;2.75;0.30;;;;;;;1.34;56.27;102211.13;4900304;29;20032;-81
2021/04/03 02:57:20;;;;;;;2.00;0.60;;;;;;;1.26;56.71;102208.16;4899414;29;20043;-80
2021/04/03 02:59:57;;;;;;;0.75;0.20;;;;;;;1.06;56.51;102195.38;4867516;29;20033;-81
2021/04/03 03:02:24;;;;;;;1.60;0.30;;;;;;;1.06;56.51;102205.97;4880956;29;20479;-80
2021/04/03 03:04:52;;;;;;;19.58;9.93;;;;;;;0.98;56.61;102214.47;4894238;29;20123;-80
2021/04/03 03:07:20;;;;;;;1.60;0.80;;;;;;;0.84;56.86;102198.63;4882421;29;20032;-80
2021/04/03 03:09:48;;;;;;;1.35;0.38;;;;;;;0.85;56.78;102214.41;4881548;29;20116;-80
2021/04/03 03:12:21;;;;;;;3.58;1.00;;;;;;;0.66;56.96;102198.91;4866834;29;20025;-81
2021/04/03 03:14:48;;;;;;;6.50;2.90;;;;;;;0.67;56.84;102213.00;4880812;29;20427;-81
2021/04/03 03:17:14;;;;;;;1.48;0.80;;;;;;;0.61;57.00;102216.88;4880535;29;20440;-81
2021/04/03 03:19:40;;;;;;;1.42;0.30;;;;;;;0.60;57.67;102215.19;4847827;29;20448;-81
2021/04/03 03:22:06;;;;;;;1.25;0.30;;;;;;;0.62;57.58;102226.53;4883866;29;20067;-81
2021/04/03 03:24:33;;;;;;;2.53;0.47;;;;;;;0.62;57.29;102223.88;4896058;29;20024;-81
2021/04/03 03:27:00;;;;;;;1.63;0.40;;;;;;;0.49;57.79;102209.72;4899892;29;20092;-81
2021/04/03 03:29:26;;;;;;;1.55;0.32;;;;;;;0.60;57.71;102227.59;4867085;29;20045;-81
2021/04/03 03:31:52;;;;;;;1.60;0.40;;;;;;;0.53;57.74;102220.97;4880748;29;20032;-81
2021/04/03 03:34:18;;;;;;;1.08;0.40;;;;;;;0.58;57.91;102229.47;4877088;29;20482;-81
2021/04/03 03:36:44;;;;;;;0.88;0.30;;;;;;;0.75;57.97;102234.53;4896452;29;20064;-81
2021/04/03 03:39:09;;;;;;;2.00;0.40;;;;;;;0.65;58.09;102228.97;4894424;29;20119;-81
2021/04/03 03:41:36;;;;;;;1.13;0.32;;;;;;;0.57;58.36;102222.50;4899298;29;20063;-81
2021/04/03 03:44:03;;;;;;;47.53;17.67;;;;;;;0.55;58.54;102235.81;4890546;29;20028;-80
2021/04/03 03:46:30;;;;;;;0.80;0.30;;;;;;;0.41;58.22;102226.13;4864409;29;20088;-80
2021/04/03 03:48:56;;;;;;;0.55;0.22;;;;;;;0.48;58.07;102231.88;4848443;29;20439;-80
2021/04/03 03:51:21;;;;;;;1.98;0.43;;;;;;;0.46;58.32;102239.94;4881633;29;20117;-81
2021/04/03 03:53:47;;;;;;;1.00;0.22;;;;;;;0.46;58.28;102239.03;4879581;29;20088;-81
2021/04/03 03:56:15;;;;;;;1.55;0.40;;;;;;;0.36;58.21;102222.06;4879977;29;20044;-81
2021/04/03 03:58:41;;;;;;;1.00;0.32;;;;;;;0.35;58.55;102231.81;4879608;29;20035;-81
2021/04/03 04:01:07;;;;;;;4.85;0.47;;;;;;;0.43;59.02;102250.72;4864672;29;20112;-81
2021/04/03 04:03:33;;;;;;;1.70;0.38;;;;;;;0.43;59.05;102256.00;4878874;29;20125;-80
2021/04/03 04:05:58;;;;;;;3.45;0.82;;;;;;;0.22;58.99;102223.78;4883284;29;20566;-80
2021/04/03 04:08:23;;;;;;;1.77;0.50;;;;;;;0.31;59.02;102246.19;4879112;29;20047;-81
2021/04/03 04:10:49;;;;;;;1.25;0.40;;;;;;;0.31;59.30;102256.78;4882503;29;20099;-80
2021/04/03 04:13:14;;;;;;;1.08;0.30;;;;;;;0.26;59.13;102252.72;4891708;29;20523;-81
2021/04/03 04:15:40;;;;;;;0.93;0.30;;;;;;;0.26;59.08;102258.84;4880716;29;20037;-80
2021/04/03 04:18:05;;;;;;;3.30;0.60;;;;;;;0.18;59.27;102246.09;4862294;29;20185;-80
2021/04/03 04:20:32;;;;;;;3.67;0.40;;;;;;;0.02;59.24;102226.00;4882937;29;20095;-80
2021/04/03 04:22:59;;;;;;;1.88;0.60;;;;;;;0.23;59.21;102251.97;4875729;29;20420;-81
2021/04/03 04:25:24;;;;;;;0.50;0.20;;;;;;;0.22;59.20;102252.06;4864305;29;20037;-80
2021/04/03 04:27:50;;;;;;;1.70;0.35;;;;;;;0.21;58.85;102266.25;4861016;29;20345;-81
2021/04/03 04:30:16;;;;;;;0.73;0.30;;;;;;;0.12;59.21;102258.88;4880228;29;20036;-80
2021/04/03 04:32:44;;;;;;;1.90;0.70;;;;;;;0.17;59.13;102272.69;4863142;29;20043;-80
2021/04/03 04:35:11;;;;;;;0.95;0.30;;;;;;;0.17;59.53;102270.03;4845081;29;20127;-80
2021/04/03 04:37:37;;;;;;;1.75;0.35;;;;;;;0.17;59.09;102265.59;4848087;29;20064;-81
2021/04/03 04:40:08;;;;;;;1.35;0.38;;;;;;;0.13;59.65;102258.78;4865952;29;20043;-81
2021/04/03 04:42:33;;;;;;;2.30;0.40;;;;;;;0.20;59.58;102262.75;4878338;29;20041;-81
2021/04/03 04:44:59;;;;;;;0.65;0.25;;;;;;;0.12;59.29;102256.22;4878091;29;20084;-80
2021/04/03 04:47:25;;;;;;;1.38;0.25;;;;;;;0.17;58.90;102256.81;4878342;29;20044;-80
2021/04/03 04:49:51;;;;;;;1.40;0.30;;;;;;;0.76;57.86;102268.00;4846489;29;20412;-81
2021/04/03 04:52:17;;;;;;;1.88;0.22;;;;;;;1.29;56.47;102261.00;4875348;29;20029;-81
2021/04/03 04:54:42;;;;;;;1.15;0.77;;;;;;;1.73;55.33;102270.38;4880029;29;20045;-81
2021/04/03 04:57:08;;;;;;;5.03;0.50;;;;;;;2.23;54.37;102273.13;4887649;29;20096;-81
2021/04/03 04:59:34;;;;;;;0.75;0.25;;;;;;;2.42;53.34;102249.59;4882018;29;20047;-81
2021/04/03 05:01:59;;;;;;;2.17;0.38;;;;;;;2.92;52.33;102273.44;4849240;29;20037;-81
2021/04/03 05:04:25;;;;;;;1.85;0.30;;;;;;;3.14;51.69;102260.22;4845259;29;20117;-81
2021/04/03 05:06:50;;;;;;;1.58;0.40;;;;;;;3.42;51.66;102274.13;4881035;29;20061;-81
2021/04/03 05:09:16;;;;;;;2.20;0.40;;;;;;;3.67;50.69;102271.25;4877642;29;20041;-82
2021/04/03 05:11:41;;;;;;;1.83;0.40;;;;;;;3.59;50.71;102279.00;4864121;29;20043;-82
2021/04/03 05:14:07;;;;;;;0.95;0.38;;;;;;;3.78;50.38;102280.28;4889751;29;20021;-82
2021/04/03 05:16:32;;;;;;;1.15;0.30;;;;;;;3.93;49.79;102265.75;4900361;29;20039;-81
2021/04/03 05:18:58;;;;;;;1.13;0.30;;;;;;;4.21;48.57;102254.63;4873856;29;20040;-82
2021/04/03 05:21:24;;;;;;;1.95;0.50;;;;;;;4.48;48.48;102288.88;4898741;29;20036;-81
2021/04/03 05:23:50;;;;;;;2.13;0.30;;;;;;;4.60;47.88;102268.41;4904727;29;20444;-80
2021/04/03 05:26:15;;;;;;;1.38;0.30;;;;;;;4.68;46.97;102260.59;4867579;29;20035;-81
2021/04/03 05:28:41;;;;;;;3.47;0.52;;;;;;;5.01;46.94;102281.97;4887883;29;20033;-81
2021/04/03 05:31:06;;;;;;;3.63;0.45;;;;;;;5.05;46.98;102286.91;4870250;29;20048;-81
2021/04/03 05:33:31;;;;;;;2.78;0.68;;;;;;;5.18;45.96;102289.44;4851030;29;20029;-82
2021/04/03 05:35:57;;;;;;;1.30;0.47;;;;;;;4.40;47.55;102287.78;4853673;29;20052;-82
2021/04/03 05:38:22;;;;;;;1.58;0.60;;;;;;;3.13;50.57;102289.59;4880109;29;20048;-81
2021/04/03 05:40:48;;;;;;;2.25;0.40;;;;;;;2.56;52.60;102297.25;4905851;29;20099;-81
2021/04/03 05:43:15;;;;;;;5.72;0.43;;;;;;;2.27;52.96;102288.72;4884182;29;20486;-81
2021/04/03 05:45:42;;;;;;;1.80;0.52;;;;;;;1.96;53.62;102270.59;4886766;29;20060;-81
2021/04/03 05:48:08;;;;;;;3.40;0.50;;;;;;;1.92;54.02;102275.28;4866185;29;20120;-80
2021/04/03 05:50:36;;;;;;;1.35;0.38;;;;;;;2.02;54.11;102299.34;4886202;29;20064;-82
2021/04/03 05:53:02;;;;;;;2.08;0.50;;;;;;;2.03;54.25;102304.56;4881587;29;20087;-80
2021/04/03 05:55:28;;;;;;;2.10;0.40;;;;;;;2.05;54.28;102305.31;4893265;29;20041;-82
2021/04/03 05:57:54;;;;;;;1.27;0.30;;;;;;;2.00;53.98;102288.84;4873458;29;20116;-82
2021/04/03 06:00:20;;;;;;;1.63;0.60;;;;;;;2.15;54.28;102305.50;4887764;29;20036;-82
2021/04/03 06:02:45;;;;;;;1.40;0.35;;;;;;;2.05;54.22;102280.56;4875026;29;20033;-82
2021/04/03 06:05:11;;;;;;;1.42;0.35;;;;;;;2.01;54.32;102292.34;4887720;29;20033;-80
2021/04/03 06:07:39;;;;;;;1.42;0.32;;;;;;;1.96;54.15;102273.25;4863768;29;20037;-81
2021/04/03 06:10:06;;;;;;;1.35;0.38;;;;;;;2.29;54.21;102309.88;4879889;29;20441;-81
2021/04/03 06:12:41;;;;;;;1.38;0.20;;;;;;;2.15;54.19;102304.66;4851997;29;20120;-80
2021/04/03 06:15:10;;;;;;;1.60;0.40;;;;;;;2.20;53.94;102310.50;4864214;29;20049;-82
2021/04/03 06:17:35;;;;;;;2.60;0.40;;;;;;;2.13;54.40;102293.31;4871646;29;20093;-80
2021/04/03 06:20:01;;;;;;;0.85;0.30;;;;;;;2.13;54.09;102298.63;4861019;29;20433;-81
2021/04/03 06:22:42;;;;;;;1.55;0.35;;;;;;;2.38;54.41;102309.19;4876081;29;20056;-80
2021/04/03 06:25:08;;;;;;;1.20;0.22;;;;;;;2.49;54.24;102308.44;4881880;29;20467;-80
2021/04/03 06:27:34;;;;;;;0.65;0.40;;;;;;;2.38;54.36;102298.56;4848928;29;20071;-80
2021/04/03 06:30:13;;;;;;;1.65;0.60;;;;;;;2.52;54.03;102297.59;4881733;29;20028;-81
2021/04/03 06:32:38;;;;;;;3.08;0.55;;;;;;;2.72;53.42;102322.75;4877790;29;20033;-80
2021/04/03 06:35:04;;;;;;;2.53;0.85;;;;;;;2.88;53.61;102320.69;4881418;29;20097;-80
2021/04/03 06:37:35;;;;;;;3.22;1.20;;;;;;;2.95;52.96;102332.56;4875556;29;20531;-81
2021/04/03 06:40:12;;;;;;;2.55;0.90;;;;;;;3.09;53.28;102328.88;4885846;29;20056;-81
2021/04/03 06:42:52;;;;;;;2.20;0.80;;;;;;;3.09;52.76;102338.69;4888048;29;20033;-81
2021/04/03 06:45:17;;;;;;;3.83;1.40;;;;;;;3.06;52.51;102342.41;4877495;29;20533;-81
2021/04/03 06:47:48;;;;;;;3.22;1.10;;;;;;;2.94;52.32;102296.28;4886501;29;20044;-81
2021/04/03 06:50:14;;;;;;;1.80;0.70;;;;;;;3.25;51.90;102353.41;4848027;29;20033;-81
2021/04/03 06:52:41;;;;;;;2.65;0.75;;;;;;;3.23;51.67;102349.97;4883041;29;20025;-81
2021/04/03 06:55:09;;;;;;;3.13;0.73;;;;;;;3.38;51.73;102357.78;4860328;29;20033;-80
2021/04/03 06:57:35;;;;;;;1.42;0.60;;;;;;;3.54;51.54;102374.31;4880232;29;20037;-80
2021/04/03 07:00:02;;;;;;;1.00;0.30;;;;;;;3.59;51.23;102366.84;4885051;29;20092;-79
2021/04/03 07:02:31;;;;;;;0.95;0.43;;;;;;;3.58;50.93;102357.16;4859427;29;20041;-79
2021/04/03 07:04:59;;;;;;;2.13;0.55;;;;;;;3.75;50.94;102366.53;4875098;29;20033;-79
2021/04/03 07:07:28;;;;;;;4.78;0.30;;;;;;;3.82;50.85;102364.25;4876065;29;20029;-80
2021/04/03 07:09:57;;;;;;;2.22;0.40;;;;;;;3.96;50.61;102378.22;4865939;29;20029;-79
2021/04/03 07:12:23;;;;;;;1.55;0.22;;;;;;;3.96;50.68;102380.03;4864098;29;20028;-80
2021/04/03 07:14:49;;;;;;;1.13;0.30;;;;;;;4.11;50.58;102383.34;4877952;29;20049;-80
2021/04/03 07:17:16;;;;;;;1.00;0.30;;;;;;;3.97;50.36;102368.41;4866654;29;20044;-79
2021/04/03 07:19:45;;;;;;;1.75;0.40;;;;;;;4.08;49.44;102367.59;4882375;29;20025;-79
2021/04/03 07:22:13;;;;;;;3.50;0.50;;;;;;;3.94;49.48;102315.38;4865036;29;20069;-79
2021/04/03 07:24:39;;;;;;;2.15;0.60;;;;;;;4.27;49.05;102378.50;4864358;29;20055;-79
2021/04/03 07:27:05;;;;;;;3.03;0.60;;;;;;;4.31;48.83;102364.00;4866712;29;20028;-80
2021/04/03 07:29:44;;;;;;;1.33;0.35;;;;;;;4.46;49.83;102377.91;4879997;29;20040;-79
2021/04/03 07:32:31;;;;;;;0.98;0.47;;;;;;;4.54;49.85;102374.66;4863319;29;20037;-79
2021/04/03 07:34:57;;;;;;;1.20;0.30;;;;;;;4.66;49.36;102387.84;4848309;29;20049;-80
2021/04/03 07:37:34;;;;;;;3.40;0.20;;;;;;;4.79;48.74;102385.06;4849434;29;20037;-80
2021/04/03 07:39:59;;;;;;;1.35;0.30;;;;;;;4.60;47.36;102396.34;4880843;29;20033;-80
2021/04/03 07:42:36;;;;;;;2.50;0.28;;;;;;;4.64;48.24;102384.47;4883442;29;20039;-80
2021/04/03 07:45:23;;;;;;;1.33;0.40;;;;;;;4.84;48.47;102382.88;4886195;29;20032;-80
2021/04/03 07:47:49;;;;;;;1.55;0.35;;;;;;;4.53;46.23;102381.78;4872695;29;20092;-80
2021/04/03 07:50:45;;;;;;;1.85;0.32;;;;;;;4.68;47.38;102383.25;4838349;29;20127;-79
2021/04/03 07:53:11;;;;;;;0.85;0.28;;;;;;;4.61;47.40;102371.38;4868834;29;20017;-80
2021/04/03 07:55:43;;;;;;;1.80;0.43;;;;;;;4.65;47.22;102374.66;4880206;29;20060;-80
2021/04/03 07:58:17;;;;;;;0.68;0.20;;;;;;;4.82;48.01;102400.81;4863882;29;20353;-80
2021/04/03 08:00:43;;;;;;;0.90;0.28;;;;;;;4.87;47.77;102397.81;4887485;29;20425;-81
2021/04/03 08:03:09;;;;;;;1.85;0.55;;;;;;;4.83;46.88;102388.31;4841679;29;20033;-81
2021/04/03 08:05:35;;;;;;;1.48;0.30;;;;;;;4.84;46.33;102392.72;4886365;29;20411;-80
2021/04/03 08:08:01;;;;;;;1.00;0.40;;;;;;;5.15;46.02;102386.59;4891536;29;20036;-80
2021/04/03 08:10:26;;;;;;;1.63;0.40;;;;;;;5.18;46.56;102397.00;4889072;29;20107;-80
2021/04/03 08:12:54;;;;;;;1.63;0.40;;;;;;;5.36;46.42;102397.34;4863433;29;20364;-80
2021/04/03 08:15:21;;;;;;;1.05;0.30;;;;;;;5.52;45.56;102386.22;4881749;29;20463;-80
2021/04/03 08:17:54;;;;;;;1.65;0.30;;;;;;;5.61;43.00;102404.16;4881806;29;20037;-81
2021/04/03 08:20:21;;;;;;;1.60;0.20;;;;;;;5.77;43.72;102410.91;4880204;29;20464;-80
2021/04/03 08:23:13;;;;;;;1.55;0.20;;;;;;;5.58;43.13;102388.38;4864006;29;20028;-80
2021/04/03 08:25:53;;;;;;;1.98;0.10;;;;;;;4.31;42.49;102209.44;4879490;24;20040;-82
2021/04/03 08:28:21;;;;;;;1.33;0.40;;;;;;;3.77;44.04;102143.63;4927237;29;20096;-82
2021/04/03 08:30:47;;;;;;;1.75;0.20;;;;;;;4.33;43.54;102218.13;4918870;29;20036;-82
2021/04/03 08:33:13;;;;;;;0.82;0.45;;;;;;;4.79;42.88;102299.72;5024597;23;20083;-80
2021/04/03 08:35:43;;;;;;;0.65;0.30;;;;;;;4.91;42.47;102313.91;4844655;29;20044;-80
2021/04/03 08:38:20;;;;;;;0.50;0.20;;;;;;;4.56;42.56;102224.28;4870200;29;20037;-83
2021/04/03 08:40:47;;;;;;;0.75;0.20;;;;;;;4.71;41.30;102246.19;4868414;29;20030;-83
2021/04/03 08:43:23;;;;;;;2.33;0.50;;;;;;;5.59;41.84;102381.22;4867626;29;20041;-82
2021/04/03 08:45:49;;;;;;;1.20;0.50;;;;;;;5.24;43.01;102304.94;4860133;29;20029;-81
2021/04/03 08:48:15;;;;;;;0.60;0.20;;;;;;;4.50;41.94;102239.91;4882247;29;20025;-83
2021/04/03 08:50:43;;;;;;;1.33;0.40;;;;;;;4.49;42.79;102233.75;4864590;29;20006;-82
2021/04/03 08:53:09;;;;;;;1.00;0.30;;;;;;;3.98;42.03;102117.09;4876768;29;20129;-82
2021/04/03 08:55:35;;;;;;;0.90;0.40;;;;;;;4.66;42.49;102294.53;4873564;29;20033;-81
2021/04/03 09:00:30;;;;;;;0.73;0.30;;;;;;;5.63;42.91;102394.22;4879451;29;20046;-84
2021/04/03 09:02:58;;;;;;;1.25;0.40;;;;;;;5.65;42.48;102404.75;4893107;29;20053;-83
2021/04/03 09:05:24;;;;;;;1.10;0.30;;;;;;;5.79;43.22;102390.25;4871669;29;20044;-81
2021/04/03 09:07:51;;;;;;;0.38;0.10;;;;;;;5.65;43.24;102378.03;4864090;29;20038;-81
2021/04/03 09:10:24;;;;;;;0.30;0.20;;;;;;;5.76;41.78;102395.84;4877383;29;20025;-84
2021/04/03 09:12:51;;;;;;;1.45;0.20;;;;;;;4.90;42.40;102232.16;5049677;23;20048;-79
2021/04/03 09:15:26;;;;;;;1.75;0.30;;;;;;;6.16;42.08;102384.47;4977557;23;20204;-81
2021/04/03 09:17:54;;;;;;;0.65;0.30;;;;;;;5.83;41.50;102373.84;4903011;29;20418;-82
2021/04/03 09:20:25;;;;;;;1.38;0.40;;;;;;;6.09;41.59;102385.03;4890743;29;20017;-83
2021/04/03 09:22:53;;;;;;;0.70;0.30;;;;;;;5.97;41.31;102372.69;4904253;29;20033;-81
2021/04/03 09:25:29;;;;;;;0.93;0.30;;;;;;;5.85;40.61;102397.75;4904597;29;20100;-82
2021/04/03 09:28:16;;;;;;;1.77;0.20;;;;;;;5.83;40.58;102386.34;4879412;29;20052;-82
2021/04/03 09:30:46;;;;;;;1.92;0.40;;;;;;;5.92;40.55;102390.91;4888161;29;20019;-82
2021/04/03 09:33:32;;;;;;;0.85;0.30;;;;;;;5.84;41.46;102378.19;4900709;29;20044;-82
2021/04/03 09:36:09;;;;;;;1.33;0.80;;;;;;;5.95;41.54;102369.31;4896775;29;20049;-83
2021/04/03 09:38:37;;;;;;;0.77;0.30;;;;;;;6.20;41.63;102372.56;4920985;29;20020;-83
2021/04/03 09:41:23;;;;;;;1.40;0.30;;;;;;;6.39;40.89;102391.38;4912511;29;20009;-83
2021/04/03 09:43:49;;;;;;;1.15;0.30;;;;;;;6.65;40.94;102374.88;4905581;29;20057;-82
2021/04/03 09:46:15;;;;;;;1.17;0.30;;;;;;;6.63;40.63;102361.66;4901496;29;20017;-83
2021/04/03 09:48:43;;;;;;;0.32;0.20;;;;;;;6.82;40.38;102371.56;4885594;29;20017;-83
2021/04/03 09:51:09;;;;;;;1.05;0.40;;;;;;;6.53;41.24;102369.63;4900529;29;20017;-83
2021/04/03 09:53:35;;;;;;;1.20;0.30;;;;;;;6.64;42.69;102375.88;4895265;29;20078;-83
2021/04/03 09:56:01;;;;;;;1.45;0.35;;;;;;;6.61;43.93;102373.47;4886330;29;20049;-83
2021/04/03 09:58:27;;;;;;;1.23;0.45;;;;;;;6.53;43.80;102368.78;4892496;29;20013;-83
2021/04/03 10:00:52;;;;;;;1.33;0.30;;;;;;;6.50;44.48;102374.41;4905201;29;20044;-83
2021/04/03 10:03:19;;;;;;;0.50;0.20;;;;;;;6.40;44.14;102349.44;4899763;29;20031;-83
2021/04/03 10:05:44;;;;;;;1.55;0.35;;;;;;;6.42;43.94;102376.88;4890500;29;20025;-83
2021/04/03 10:08:11;;;;;;;1.30;0.40;;;;;;;6.47;42.40;102375.50;4903183;29;20058;-84
2021/04/03 10:10:39;;;;;;;2.72;0.47;;;;;;;6.41;42.02;102356.47;4883251;29;20041;-84
2021/04/03 10:13:07;;;;;;;0.73;0.30;;;;;;;6.45;43.29;102355.22;4888423;29;20021;-81
2021/04/03 10:15:35;;;;;;;1.20;0.43;;;;;;;6.49;43.29;102352.16;4899186;29;20057;-82
2021/04/03 10:18:03;;;;;;;1.17;0.30;;;;;;;6.47;43.24;102364.81;4914177;29;20042;-84
2021/04/03 10:20:28;;;;;;;1.23;0.40;;;;;;;6.68;43.42;102367.44;4876786;29;20109;-84
2021/04/03 10:22:55;;;;;;;1.52;0.50;;;;;;;6.56;43.18;102379.22;4891755;29;20085;-84
2021/04/03 10:25:21;;;;;;;1.83;0.40;;;;;;;6.61;43.29;102368.09;4886558;29;20123;-84
2021/04/03 10:27:47;;;;;;;2.42;0.60;;;;;;;6.60;43.53;102367.28;4884121;29;20025;-82
2021/04/03 10:30:13;;;;;;;1.10;0.50;;;;;;;6.56;45.25;102369.38;4903356;29;20021;-83
2021/04/03 10:32:38;;;;;;;3.97;0.50;;;;;;;6.53;45.20;102372.31;4901215;29;20048;-82
2021/04/03 10:35:05;;;;;;;1.35;0.40;;;;;;;6.40;45.63;102363.66;4883361;29;20018;-81
2021/04/03 10:37:31;;;;;;;2.22;0.60;;;;;;;6.17;46.83;102346.94;4900434;29;20033;-80
2021/04/03 10:39:56;;;;;;;2.45;0.45;;;;;;;5.98;45.68;102361.03;4893477;29;20036;-79
2021/04/03 10:42:22;;;;;;;1.48;0.40;;;;;;;6.28;46.41;102362.03;4854376;29;20042;-80
2021/04/03 10:44:47;;;;;;;1.20;0.50;;;;;;;6.35;43.11;102369.38;4884028;29;20065;-81
2021/04/03 10:47:13;;;;;;;3.90;0.60;;;;;;;6.39;44.19;102372.69;4894057;29;20037;-82
2021/04/03 10:49:39;;;;;;;1.48;0.32;;;;;;;5.25;45.12;102165.19;4985826;23;20069;-82
2021/04/03 10:52:05;;;;;;;3.05;0.43;;;;;;;5.53;44.91;102203.72;4905416;29;20068;-83
2021/04/03 10:54:31;;;;;;;2.00;0.52;;;;;;;5.88;44.80;102270.09;4883746;29;20029;-80
2021/04/03 10:56:57;;;;;;;0.80;0.40;;;;;;;5.97;45.74;102264.97;4900171;29;20097;-80
2021/04/03 10:59:22;;;;;;;4.28;0.60;;;;;;;6.14;45.50;102261.69;4921404;29;20016;-81
2021/04/03 11:01:48;;;;;;;1.75;0.60;;;;;;;5.50;45.25;102158.59;4915873;29;20033;-80
2021/04/03 11:04:14;;;;;;;2.75;0.65;;;;;;;6.72;45.36;102363.53;4887165;29;20040;-79
2021/04/03 11:06:40;;;;;;;0.95;0.40;;;;;;;6.66;43.62;102357.88;4904232;29;20356;-80
2021/04/03 11:09:05;;;;;;;1.92;0.45;;;;;;;6.60;43.86;102351.22;4901423;29;20115;-78
2021/04/03 11:11:31;;;;;;;2.67;0.50;;;;;;;6.62;44.14;102351.91;4917351;29;20028;-81
2021/04/03 11:13:57;;;;;;;1.38;0.40;;;;;;;6.63;43.20;102352.78;4895984;29;20024;-81
2021/04/03 11:16:23;;;;;;;1.30;0.40;;;;;;;6.61;42.04;102354.72;4889493;29;20028;-81
2021/04/03 11:18:48;;;;;;;1.73;0.68;;;;;;;6.59;42.75;102358.41;4902360;29;20032;-81
2021/04/03 11:21:13;;;;;;;2.10;0.52;;;;;;;6.49;44.30;102348.63;4932620;29;20036;-80
2021/04/03 11:23:39;;;;;;;1.75;0.22;;;;;;;6.54;45.11;102338.38;4882861;29;20342;-80
2021/04/03 11:26:04;;;;;;;1.27;0.50;;;;;;;6.67;42.43;102352.38;4901283;29;20035;-81
2021/04/03 11:28:30;;;;;;;2.10;0.60;;;;;;;6.76;46.84;102356.91;4915812;29;20036;-80
2021/04/03 11:30:55;;;;;;;3.63;0.65;;;;;;;6.52;51.56;102354.56;4916885;29;20032;-82
2021/04/03 11:33:22;;;;;;;2.53;0.70;;;;;;;6.26;55.86;102339.97;4914285;29;20032;-81
2021/04/03 11:35:50;;;;;;;5.85;1.10;;;;;;;5.95;56.91;102347.09;4926805;29;20046;-81
2021/04/03 11:38:15;;;;;;;4.10;0.90;;;;;;;5.84;57.05;102355.97;4894894;29;20371;-80
2021/04/03 11:40:41;;;;;;;6.22;0.90;;;;;;;5.72;58.38;102341.00;4894603;29;20033;-83
2021/04/03 11:43:06;;;;;;;3.05;1.08;;;;;;;5.50;57.95;102342.81;4887256;29;20386;-84